Time;durP1;ratioP1;P1;durP2;ratioP2;P2;SDS_P1;SDS_P2;PMS_P1;PMS_P2;Temp;Humidity;BMP_temperature;BMP_pressure;BME280_temperature;BME280_humidity;BME280_pressure;Samples;Min_cycle;Max_cycle;Signal;HPM_P1;HPM_P2
2023/06/08 00:03:54;;;;;;;;;;;20.20;77.00;;;;;;20927063;28;19971;-55
2023/06/08 00:13:55;;;;;;;;;;;20.10;77.00;;;;;;20924595;28;19937;-54
2023/06/08 00:23:56;;;;;;;;;;;20.10;76.90;;;;;;20924508;28;20446;-54
2023/06/08 00:33:56;;;;;;;;;;;20.00;77.20;;;;;;20922870;28;19925;-54
2023/06/08 00:43:57;;;;;;;;;;;20.00;77.40;;;;;;20923798;28;19925;-54
2023/06/08 00:53:58;;;;;;;;;;;20.00;77.50;;;;;;20921666;28;19925;-53
2023/06/08 01:04:08;;;;;;;;;;;20.00;77.60;;;;;;20922204;28;20293;-54
2023/06/08 01:14:18;;;;;;;;;;;19.90;77.70;;;;;;20920174;28;19925;-53
2023/06/08 01:24:20;;;;;;;;;;;19.90;77.90;;;;;;20918493;28;20431;-53
2023/06/08 01:34:20;;;;;;;;;;;19.80;78.00;;;;;;20919129;28;20305;-55
2023/06/08 01:44:21;;;;;;;;;;;19.80;78.10;;;;;;20919029;28;19925;-53
2023/06/08 01:54:22;;;;;;;;;;;19.70;78.20;;;;;;20918282;28;19924;-55
2023/06/08 02:04:23;;;;;;;;;;;19.60;78.30;;;;;;20917656;28;19935;-54
2023/06/08 02:14:24;;;;;;;;;;;19.50;78.50;;;;;;20915411;28;19987;-55
2023/06/08 02:24:25;;;;;;;;;;;19.50;78.30;;;;;;20915497;28;20283;-55
2023/06/08 02:34:26;;;;;;;;;;;19.50;78.30;;;;;;20915300;28;19933;-54
2023/06/08 02:44:26;;;;;;;;;;;19.50;78.40;;;;;;20915076;28;19932;-54
2023/06/08 02:54:27;;;;;;;;;;;19.40;78.10;;;;;;20913854;28;20386;-54
2023/06/08 03:04:28;;;;;;;;;;;19.40;77.80;;;;;;20914050;28;20416;-54
2023/06/08 03:14:29;;;;;;;;;;;19.40;77.60;;;;;;20912403;28;19928;-54
2023/06/08 03:24:32;;;;;;;;;;;19.30;77.60;;;;;;20911915;28;20077;-53
2023/06/08 03:34:33;;;;;;;;;;;19.30;77.40;;;;;;20912894;28;19970;-54
2023/06/08 03:44:34;;;;;;;;;;;19.30;77.40;;;;;;20912698;28;19929;-53
2023/06/08 03:54:34;;;;;;;;;;;19.30;77.50;;;;;;20912402;28;19932;-54
2023/06/08 04:04:35;;;;;;;;;;;19.30;76.90;;;;;;20923354;28;19925;-53
2023/06/08 04:14:36;;;;;;;;;;;19.30;76.60;;;;;;20925063;28;20381;-54
2023/06/08 04:24:38;;;;;;;;;;;19.30;77.00;;;;;;20924907;28;20390;-55
2023/06/08 04:34:39;;;;;;;;;;;19.20;77.00;;;;;;20924341;28;19925;-55
2023/06/08 04:44:39;;;;;;;;;;;19.30;76.90;;;;;;20923993;28;19924;-58
2023/06/08 04:54:40;;;;;;;;;;;19.20;76.70;;;;;;20922880;28;19925;-53
2023/06/08 05:04:40;;;;;;;;;;;19.20;76.90;;;;;;20922174;28;19932;-55
2023/06/08 05:14:41;;;;;;;;;;;19.20;76.90;;;;;;20920701;28;20361;-54
2023/06/08 05:24:42;;;;;;;;;;;19.20;76.90;;;;;;20920700;28;20023;-55
2023/06/08 05:34:42;;;;;;;;;;;19.20;76.70;;;;;;20919534;28;20015;-55
2023/06/08 05:44:43;;;;;;;;;;;19.10;77.10;;;;;;20919279;28;19999;-56
2023/06/08 05:54:44;;;;;;;;;;;19.10;77.60;;;;;;20917059;28;19928;-54
2023/06/08 06:04:45;;;;;;;;;;;19.10;77.90;;;;;;20917781;28;20398;-54
2023/06/08 06:14:45;;;;;;;;;;;19.00;78.70;;;;;;20915208;28;19975;-55
2023/06/08 06:24:46;;;;;;;;;;;18.90;79.40;;;;;;20914324;28;20386;-54
2023/06/08 06:34:47;;;;;;;;;;;18.90;80.00;;;;;;20914698;28;19932;-53
2023/06/08 06:44:47;;;;;;;;;;;18.70;80.50;;;;;;20914468;28;19925;-54
2023/06/08 06:54:48;;;;;;;;;;;18.80;81.20;;;;;;20913398;28;20015;-54
2023/06/08 07:04:52;;;;;;;;;;;18.70;81.40;;;;;;20912229;28;19999;-54
2023/06/08 07:14:53;;;;;;;;;;;18.70;81.30;;;;;;20911548;28;20007;-53
2023/06/08 07:24:53;;;;;;;;;;;18.70;81.30;;;;;;20912583;28;20033;-54
2023/06/08 07:34:55;;;;;;;;;;;18.80;81.00;;;;;;20917559;28;20405;-54
2023/06/08 07:44:55;;;;;;;;;;;18.90;81.10;;;;;;20928084;28;20353;-54
2023/06/08 07:54:56;;;;;;;;;;;18.90;81.50;;;;;;20927597;28;20019;-55
2023/06/08 08:04:57;;;;;;;;;;;19.00;80.90;;;;;;20925928;28;19964;-55
2023/06/08 08:14:57;;;;;;;;;;;19.80;77.00;;;;;;20924630;28;19925;-58
2023/06/08 08:24:58;;;;;;;;;;;20.40;76.40;;;;;;20924134;28;19925;-57
2023/06/08 08:34:59;;;;;;;;;;;20.40;75.60;;;;;;20922617;28;20011;-58
2023/06/08 08:45:02;;;;;;;;;;;20.70;75.60;;;;;;20921068;28;19925;-59
2023/06/08 08:55:04;;;;;;;;;;;20.90;75.10;;;;;;20921451;28;19936;-55
2023/06/08 09:05:05;;;;;;;;;;;21.00;74.70;;;;;;20912562;28;20298;-55
2023/06/08 09:15:07;;;;;;;;;;;20.30;76.50;;;;;;20913772;28;19925;-54
2023/06/08 09:25:09;;;;;;;;;;;20.30;76.70;;;;;;20918328;28;20007;-56
2023/06/08 09:35:11;;;;;;;;;;;20.90;74.80;;;;;;20916457;28;19932;-55
2023/06/08 09:45:13;;;;;;;;;;;21.20;74.70;;;;;;20913973;28;19929;-54
2023/06/08 09:55:15;;;;;;;;;;;20.60;74.90;;;;;;20914742;28;19928;-55
2023/06/08 10:05:17;;;;;;;;;;;20.50;76.60;;;;;;20912387;28;19987;-53
2023/06/08 10:15:19;;;;;;;;;;;20.60;74.60;;;;;;20913051;28;19925;-55
2023/06/08 10:25:20;;;;;;;;;;;20.90;73.10;;;;;;20911850;28;20409;-56
2023/06/08 10:35:21;;;;;;;;;;;21.10;73.10;;;;;;20912467;28;19928;-55
2023/06/08 10:45:31;;;;;;;;;;;21.10;70.80;;;;;;20908749;28;19931;-58
2023/06/08 10:55:32;;;;;;;;;;;21.10;71.50;;;;;;20912103;28;19931;-55
2023/06/08 11:05:34;;;;;;;;;;;21.10;69.10;;;;;;20911959;28;20374;-54
2023/06/08 11:15:36;;;;;;;;;;;21.30;69.50;;;;;;20925709;28;20045;-55
2023/06/08 11:25:36;;;;;;;;;;;21.60;67.70;;;;;;20925440;28;19939;-58
2023/06/08 11:35:37;;;;;;;;;;;21.70;66.00;;;;;;20925652;28;20055;-54
2023/06/08 11:45:39;;;;;;;;;;;21.90;66.20;;;;;;20926163;28;19925;-54
2023/06/08 11:55:43;;;;;;;;;;;21.80;66.00;;;;;;20926762;28;19939;-54
2023/06/08 12:05:44;;;;;;;;;;;21.80;63.80;;;;;;20926094;28;19925;-56
2023/06/08 12:15:52;;;;;;;;;;;21.60;65.40;;;;;;20925156;28;20009;-56
2023/06/08 12:25:53;;;;;;;;;;;21.80;65.60;;;;;;20922597;28;19929;-55
2023/06/08 12:35:54;;;;;;;;;;;21.80;66.30;;;;;;20921174;28;19944;-56
2023/06/08 12:45:54;;;;;;;;;;;22.10;66.50;;;;;;20922278;28;19967;-57
2023/06/08 12:55:56;;;;;;;;;;;21.90;68.60;;;;;;20921115;28;19924;-56
2023/06/08 13:05:56;;;;;;;;;;;22.00;68.30;;;;;;20919791;28;19925;-55
2023/06/08 13:15:58;;;;;;;;;;;22.00;69.20;;;;;;20920336;28;19932;-56
2023/06/08 13:25:59;;;;;;;;;;;21.80;69.20;;;;;;20919825;28;20002;-57
2023/06/08 13:36:00;;;;;;;;;;;21.60;70.80;;;;;;20918661;28;20343;-55
2023/06/08 13:46:02;;;;;;;;;;;21.40;71.90;;;;;;20917047;28;19925;-55
2023/06/08 13:56:03;;;;;;;;;;;21.40;70.80;;;;;;20916093;28;19931;-56
2023/06/08 14:06:04;;;;;;;;;;;21.40;71.00;;;;;;20916774;28;20370;-56
2023/06/08 14:16:07;;;;;;;;;;;21.40;70.10;;;;;;20915945;28;19929;-56
2023/06/08 14:26:08;;;;;;;;;;;21.50;69.60;;;;;;20914470;28;19928;-56
2023/06/08 14:36:08;;;;;;;;;;;21.60;68.50;;;;;;20915061;28;19976;-56
2023/06/08 14:46:11;;;;;;;;;;;21.90;68.20;;;;;;20912706;28;20023;-55
2023/06/08 14:56:11;;;;;;;;;;;22.10;67.00;;;;;;20913816;28;20018;-57
2023/06/08 15:06:12;;;;;;;;;;;22.30;65.80;;;;;;20913208;28;19964;-57
2023/06/08 15:16:13;;;;;;;;;;;22.40;64.50;;;;;;20911798;28;19965;-57
2023/06/08 15:26:13;;;;;;;;;;;22.40;63.80;;;;;;20911556;28;20394;-55
2023/06/08 15:36:14;;;;;;;;;;;22.70;63.60;;;;;;20912276;28;20007;-56
2023/06/08 15:46:15;;;;;;;;;;;22.70;62.90;;;;;;20910080;28;19975;-56
2023/06/08 15:56:15;;;;;;;;;;;22.80;63.00;;;;;;20915623;28;19924;-56
2023/06/08 16:06:16;;;;;;;;;;;22.90;61.80;;;;;;20924941;28;19924;-56
2023/06/08 16:16:17;;;;;;;;;;;22.80;61.40;;;;;;20915589;28;19951;-56
2023/06/08 16:26:18;;;;;;;;;;;22.80;61.70;;;;;;20918168;28;19925;-55
2023/06/08 16:36:18;;;;;;;;;;;23.00;61.50;;;;;;20922720;28;19968;-55
2023/06/08 16:46:19;;;;;;;;;;;23.00;60.30;;;;;;20923120;28;19976;-56
2023/06/08 16:56:20;;;;;;;;;;;22.90;61.30;;;;;;20922476;28;19925;-54
2023/06/08 17:06:20;;;;;;;;;;;22.90;60.10;;;;;;20921064;28;19928;-54
2023/06/08 17:16:21;;;;;;;;;;;23.00;60.40;;;;;;20919186;28;19939;-53
2023/06/08 17:26:22;;;;;;;;;;;23.00;60.80;;;;;;20918961;28;20394;-56
2023/06/08 17:36:22;;;;;;;;;;;23.10;61.80;;;;;;20913217;28;19925;-54
2023/06/08 17:46:23;;;;;;;;;;;23.00;63.90;;;;;;20913858;28;19932;-57
2023/06/08 17:56:24;;;;;;;;;;;22.90;63.90;;;;;;20917723;28;19931;-56
2023/06/08 18:06:26;;;;;;;;;;;22.90;63.60;;;;;;20914963;28;20209;-53
2023/06/08 18:16:27;;;;;;;;;;;23.00;61.80;;;;;;20915872;28;19929;-53
2023/06/08 18:26:28;;;;;;;;;;;22.90;62.90;;;;;;20914588;28;19995;-53
2023/06/08 18:36:28;;;;;;;;;;;22.60;64.70;;;;;;20913165;28;19980;-54
2023/06/08 18:46:29;;;;;;;;;;;22.30;65.20;;;;;;20913442;28;19964;-52
2023/06/08 18:56:34;;;;;;;;;;;22.40;64.00;;;;;;20913891;28;19974;-55
2023/06/08 19:06:38;;;;;;;;;;;22.00;64.60;;;;;;20911742;28;19936;-52
2023/06/08 19:16:39;;;;;;;;;;;21.80;67.40;;;;;;20911884;28;19924;-54
2023/06/08 19:26:40;;;;;;;;;;;21.40;72.90;;;;;;20912015;28;19931;-56
2023/06/08 19:36:40;;;;;;;;;;;21.30;73.30;;;;;;20925032;28;20448;-54
2023/06/08 19:46:41;;;;;;;;;;;21.20;73.60;;;;;;20927014;28;19925;-55
2023/06/08 19:56:44;;;;;;;;;;;21.20;72.30;;;;;;20926974;28;19925;-55
2023/06/08 20:06:46;;;;;;;;;;;21.00;72.30;;;;;;20924891;28;19936;-54
2023/06/08 20:16:48;;;;;;;;;;;20.90;71.40;;;;;;20924944;28;19924;-56
2023/06/08 20:26:48;;;;;;;;;;;20.80;71.60;;;;;;20922856;28;19924;-54
2023/06/08 20:36:49;;;;;;;;;;;20.70;72.00;;;;;;20922500;28;19978;-53
2023/06/08 20:46:50;;;;;;;;;;;20.60;72.00;;;;;;20920487;28;19971;-54
2023/06/08 20:56:51;;;;;;;;;;;20.60;71.90;;;;;;20921088;28;20101;-55
2023/06/08 21:06:51;;;;;;;;;;;20.60;71.50;;;;;;20919537;28;19931;-54
2023/06/08 21:16:53;;;;;;;;;;;20.70;71.20;;;;;;20919039;28;19925;-55
2023/06/08 21:26:58;;;;;;;;;;;20.40;72.70;;;;;;20918932;28;20054;-54
2023/06/08 21:36:59;;;;;;;;;;;20.40;73.30;;;;;;20918731;28;19932;-55
2023/06/08 21:47:00;;;;;;;;;;;20.20;74.60;;;;;;20916623;28;19970;-54
2023/06/08 21:57:01;;;;;;;;;;;20.20;74.10;;;;;;20916155;28;19928;-57
2023/06/08 22:07:06;;;;;;;;;;;20.10;74.80;;;;;;20915573;28;19931;-55
2023/06/08 22:17:09;;;;;;;;;;;19.90;75.30;;;;;;20914786;28;20020;-54
2023/06/08 22:27:10;;;;;;;;;;;20.00;75.30;;;;;;20913171;28;19925;-54
2023/06/08 22:37:11;;;;;;;;;;;20.00;75.20;;;;;;20912343;28;19952;-55
2023/06/08 22:47:12;;;;;;;;;;;19.90;75.10;;;;;;20913070;28;20413;-55
2023/06/08 22:57:12;;;;;;;;;;;19.80;75.30;;;;;;20912671;28;19971;-54
2023/06/08 23:07:15;;;;;;;;;;;19.70;75.60;;;;;;20911421;28;19925;-53
2023/06/08 23:17:18;;;;;;;;;;;19.60;76.30;;;;;;20911857;28;19929;-55
2023/06/08 23:27:22;;;;;;;;;;;19.60;76.50;;;;;;20910615;28;20058;-54
2023/06/08 23:37:23;;;;;;;;;;;19.50;76.80;;;;;;20909936;28;19924;-54
2023/06/08 23:47:25;;;;;;;;;;;19.60;76.90;;;;;;20912036;28;20263;-53
2023/06/08 23:57:26;;;;;;;;;;;19.70;76.70;;;;;;20912255;28;19925;-55
